createdAt,value
2023-01-08T00:01:38.442Z,4.87
2023-01-08T00:04:07.143Z,5.73
2023-01-08T00:06:36.646Z,5.40
2023-01-08T00:09:05.265Z,4.87
2023-01-08T00:11:33.630Z,4.90
2023-01-08T00:14:01.949Z,5.07
2023-01-08T00:16:32.430Z,4.43
2023-01-08T00:19:00.784Z,4.47
2023-01-08T00:21:29.739Z,4.90
2023-01-08T00:23:58.092Z,5.00
2023-01-08T00:26:26.483Z,5.63
2023-01-08T00:28:55.028Z,5.67
2023-01-08T00:31:23.630Z,4.77
2023-01-08T00:33:53.415Z,5.10
2023-01-08T00:36:21.851Z,5.07
2023-01-08T00:38:50.264Z,5.40
2023-01-08T00:41:18.940Z,4.80
2023-01-08T00:43:47.353Z,4.87
2023-01-08T00:46:16.763Z,4.00
2023-01-08T00:48:45.157Z,4.50
2023-01-08T00:51:15.089Z,4.20
2023-01-08T00:53:43.440Z,4.67
2023-01-08T00:56:12.194Z,4.70
2023-01-08T00:58:40.591Z,4.23
2023-01-08T01:01:13.737Z,4.10
2023-01-08T01:03:42.572Z,3.97
2023-01-08T01:06:13.325Z,4.47
2023-01-08T01:08:44.421Z,5.03
2023-01-08T01:11:20.267Z,4.87
2023-01-08T01:13:49.351Z,3.77
2023-01-08T01:16:17.873Z,4.00
2023-01-08T01:18:46.439Z,3.90
2023-01-08T01:21:19.198Z,4.07
2023-01-08T01:23:48.954Z,5.27
2023-01-08T01:26:18.820Z,3.80
2023-01-08T01:28:49.517Z,3.83
2023-01-08T01:31:18.287Z,4.33
2023-01-08T01:33:47.577Z,4.70
2023-01-08T01:36:17.740Z,4.23
2023-01-08T01:38:46.649Z,4.57
2023-01-08T01:41:24.651Z,4.73
2023-01-08T01:43:53.539Z,4.47
2023-01-08T01:46:28.077Z,4.40
2023-01-08T01:48:59.688Z,3.87
2023-01-08T01:51:32.928Z,4.37
2023-01-08T01:54:03.758Z,4.17
2023-01-08T01:56:34.006Z,4.20
2023-01-08T01:59:02.560Z,4.50
2023-01-08T02:01:32.855Z,4.37
2023-01-08T02:04:02.178Z,4.43
2023-01-08T02:06:38.544Z,4.47
2023-01-08T02:09:15.849Z,4.10
2023-01-08T02:12:12.683Z,3.53
2023-01-08T02:14:50.257Z,4.20
2023-01-08T02:17:25.545Z,5.00
2023-01-08T02:19:58.881Z,4.23
2023-01-08T02:22:39.254Z,5.10
2023-01-08T02:25:12.718Z,4.77
2023-01-08T02:27:45.927Z,3.97
2023-01-08T02:30:14.448Z,4.63
2023-01-08T02:32:44.116Z,3.77
2023-01-08T02:35:13.179Z,4.30
2023-01-08T02:37:42.148Z,4.07
2023-01-08T02:40:22.055Z,3.93
2023-01-08T02:42:59.270Z,4.03
2023-01-08T02:45:38.399Z,3.93
2023-01-08T02:48:13.441Z,4.10
2023-01-08T02:50:45.941Z,3.97
2023-01-08T02:53:18.044Z,4.53
2023-01-08T02:55:51.359Z,4.50
2023-01-08T02:58:24.586Z,4.70
2023-01-08T03:00:54.819Z,4.30
2023-01-08T03:03:26.310Z,4.10
2023-01-08T03:05:58.237Z,3.80
2023-01-08T03:08:27.441Z,3.43
2023-01-08T03:11:02.080Z,3.57
2023-01-08T03:13:38.614Z,3.80
2023-01-08T03:16:12.795Z,3.67
2023-01-08T03:18:47.450Z,4.00
2023-01-08T03:21:19.238Z,3.77
2023-01-08T03:23:49.124Z,4.60
2023-01-08T03:26:21.365Z,3.87
2023-01-08T03:28:54.625Z,3.53
2023-01-08T03:31:26.311Z,4.00
2023-01-08T03:33:56.335Z,4.10
2023-01-08T03:36:28.397Z,3.50
2023-01-08T03:39:02.531Z,4.63
2023-01-08T03:41:34.225Z,4.27
2023-01-08T03:44:04.596Z,4.07
2023-01-08T03:46:35.420Z,3.90
2023-01-08T03:49:06.343Z,4.23
2023-01-08T03:51:41.324Z,3.87
2023-01-08T03:54:12.915Z,4.23
2023-01-08T03:56:41.201Z,4.47
2023-01-08T03:59:12.350Z,3.90
2023-01-08T04:01:41.058Z,3.80
2023-01-08T04:04:10.663Z,3.87
2023-01-08T04:06:39.266Z,3.47
2023-01-08T04:09:07.917Z,3.80
2023-01-08T04:11:36.392Z,3.80
2023-01-08T04:14:04.780Z,4.20
2023-01-08T04:16:34.864Z,4.07
2023-01-08T04:19:03.255Z,4.30
2023-01-08T04:21:31.756Z,4.03
2023-01-08T04:24:00.085Z,4.20
2023-01-08T04:26:28.413Z,4.40
2023-01-08T04:28:56.752Z,4.10
2023-01-08T04:31:25.186Z,3.60
2023-01-08T04:33:55.036Z,3.80
2023-01-08T04:36:23.412Z,3.07
2023-01-08T04:38:51.785Z,4.10
2023-01-08T04:41:20.133Z,3.90
2023-01-08T04:43:48.554Z,3.80
2023-01-08T04:46:17.007Z,3.70
2023-01-08T04:48:45.459Z,4.53
2023-01-08T04:51:15.320Z,4.40
2023-01-08T04:53:43.723Z,4.23
2023-01-08T04:56:13.191Z,3.67
2023-01-08T04:58:41.914Z,3.87
2023-01-08T05:01:15.705Z,3.57
2023-01-08T05:03:46.455Z,3.30
2023-01-08T05:06:16.240Z,3.40
2023-01-08T05:08:44.558Z,3.67
2023-01-08T05:11:12.919Z,4.53
2023-01-08T05:13:41.251Z,3.30
2023-01-08T05:16:09.840Z,4.27
2023-01-08T05:18:38.282Z,3.60
2023-01-08T05:21:07.419Z,3.43
2023-01-08T05:23:37.305Z,4.17
2023-01-08T05:26:07.282Z,3.60
2023-01-08T05:28:36.547Z,3.50
2023-01-08T05:31:05.247Z,3.87
2023-01-08T05:33:33.611Z,3.87
2023-01-08T05:36:02.021Z,3.97
2023-01-08T05:38:30.305Z,3.70
2023-01-08T05:41:00.096Z,3.67
2023-01-08T05:43:28.471Z,3.50
2023-01-08T05:45:59.657Z,4.33
2023-01-08T05:48:29.191Z,3.77
2023-01-08T05:50:57.804Z,3.07
2023-01-08T05:53:26.157Z,3.83
2023-01-08T05:56:01.860Z,4.73
2023-01-08T05:58:30.436Z,4.10
2023-01-08T06:01:03.787Z,4.73
2023-01-08T06:03:32.203Z,4.03
2023-01-08T06:06:01.909Z,3.67
2023-01-08T06:08:30.738Z,4.27
2023-01-08T06:11:02.147Z,3.87
2023-01-08T06:13:30.686Z,3.20
2023-01-08T06:16:00.460Z,3.83
2023-01-08T06:18:29.595Z,3.57
2023-01-08T06:20:58.087Z,3.80
2023-01-08T06:23:26.423Z,4.13
2023-01-08T06:25:55.949Z,3.37
2023-01-08T06:28:25.932Z,3.60
2023-01-08T06:30:54.394Z,3.00
2023-01-08T06:33:23.807Z,3.20
2023-01-08T06:35:52.239Z,4.00
2023-01-08T06:38:21.433Z,3.83
2023-01-08T06:40:51.012Z,3.30
2023-01-08T06:43:23.966Z,4.37
2023-01-08T06:45:58.447Z,4.17
2023-01-08T06:48:27.461Z,4.47
2023-01-08T06:50:56.450Z,4.53
2023-01-08T06:53:25.108Z,4.30
2023-01-08T06:55:57.236Z,4.03
2023-01-08T06:58:26.401Z,4.70
2023-01-08T07:00:56.279Z,4.67
2023-01-08T07:03:24.948Z,4.60
2023-01-08T07:05:53.288Z,5.27
2023-01-08T07:08:22.678Z,5.03
2023-01-08T07:10:51.004Z,3.90
2023-01-08T07:13:19.401Z,4.73
2023-01-08T07:15:47.740Z,4.93
2023-01-08T07:18:17.636Z,4.50
2023-01-08T07:20:46.163Z,4.43
2023-01-08T07:23:14.575Z,4.63
2023-01-08T07:25:42.877Z,5.90
2023-01-08T07:28:13.996Z,4.77
2023-01-08T07:30:43.352Z,4.40
2023-01-08T07:33:11.634Z,4.70
2023-01-08T07:35:41.406Z,4.40
2023-01-08T07:38:09.680Z,4.40
2023-01-08T07:40:39.353Z,4.60
2023-01-08T07:43:07.959Z,4.87
2023-01-08T07:45:36.434Z,5.40
2023-01-08T07:48:05.095Z,4.20
2023-01-08T07:50:33.472Z,4.80
2023-01-08T07:53:03.510Z,6.57
2023-01-08T07:55:32.530Z,5.03
2023-01-08T07:58:00.943Z,5.50
2023-01-08T08:00:29.412Z,4.50
2023-01-08T08:03:03.162Z,4.97
2023-01-08T08:05:33.149Z,6.27
2023-01-08T08:08:02.906Z,10.63
2023-01-08T08:10:31.266Z,14.47
2023-01-08T08:12:59.639Z,12.30
2023-01-08T08:15:28.009Z,6.40
2023-01-08T08:17:56.574Z,5.27
2023-01-08T08:20:24.919Z,4.87
2023-01-08T08:22:53.522Z,5.13
2023-01-08T08:25:23.286Z,4.60
2023-01-08T08:27:51.647Z,4.50
2023-01-08T08:30:20.044Z,5.30
2023-01-08T08:32:48.412Z,4.47
2023-01-08T08:35:16.907Z,5.33
2023-01-08T08:37:45.275Z,5.27
2023-01-08T08:40:14.273Z,5.23
2023-01-08T08:42:44.015Z,4.93
2023-01-08T08:45:12.605Z,4.27
2023-01-08T08:47:41.084Z,5.67
2023-01-08T08:50:11.831Z,4.47
2023-01-08T08:52:40.253Z,3.97
2023-01-08T08:55:09.146Z,3.83
2023-01-08T08:57:37.498Z,3.60
2023-01-08T09:00:08.656Z,4.80
2023-01-08T09:02:37.591Z,3.97
2023-01-08T09:05:06.658Z,4.67
2023-01-08T09:07:35.102Z,4.20
2023-01-08T09:10:03.662Z,4.03
2023-01-08T09:12:32.367Z,4.17
2023-01-08T09:15:00.659Z,3.87
2023-01-08T09:17:30.457Z,4.57
2023-01-08T09:19:58.831Z,4.10
2023-01-08T09:22:27.303Z,4.60
2023-01-08T09:24:56.753Z,3.67
2023-01-08T09:27:25.378Z,3.90
2023-01-08T09:29:53.825Z,3.67
2023-01-08T09:32:22.193Z,3.77
2023-01-08T09:34:52.012Z,4.00
2023-01-08T09:37:20.366Z,3.97
2023-01-08T09:39:57.731Z,4.37
2023-01-08T09:42:31.839Z,4.07
2023-01-08T09:45:02.523Z,3.93
2023-01-08T09:47:34.003Z,4.70
2023-01-08T09:50:09.501Z,4.03
2023-01-08T09:52:39.797Z,4.50
2023-01-08T09:55:15.396Z,4.10
2023-01-08T09:57:44.605Z,4.17
2023-01-08T10:00:16.313Z,4.33
2023-01-08T10:02:45.559Z,3.43
2023-01-08T10:05:17.718Z,4.03
2023-01-08T10:07:46.943Z,5.20
2023-01-08T10:10:21.369Z,4.57
2023-01-08T10:12:52.026Z,4.17
2023-01-08T10:15:22.422Z,4.13
2023-01-08T10:17:57.305Z,4.83
2023-01-08T10:20:27.696Z,4.70
2023-01-08T10:22:56.753Z,5.33
2023-01-08T10:25:27.390Z,4.87
2023-01-08T10:28:00.460Z,5.13
2023-01-08T10:30:36.540Z,4.67
2023-01-08T10:33:08.348Z,4.73
2023-01-08T10:35:40.811Z,5.63
2023-01-08T10:38:26.548Z,4.90
2023-01-08T10:40:55.361Z,6.47
2023-01-08T10:43:28.522Z,4.83
2023-01-08T10:46:00.739Z,5.10
2023-01-08T10:48:35.096Z,5.00
2023-01-08T10:51:16.008Z,4.50
2023-01-08T10:53:44.952Z,4.50
2023-01-08T10:56:24.327Z,4.27
2023-01-08T10:58:53.381Z,4.77
2023-01-08T11:01:35.432Z,5.07
2023-01-08T11:04:23.922Z,4.70
2023-01-08T11:06:59.798Z,4.37
2023-01-08T11:09:32.132Z,4.60
2023-01-08T11:12:00.888Z,4.43
2023-01-08T11:14:32.273Z,4.50
2023-01-08T11:17:00.731Z,5.07
2023-01-08T11:19:32.804Z,4.97
2023-01-08T11:22:05.484Z,4.80
2023-01-08T11:24:35.631Z,4.70
2023-01-08T11:27:09.219Z,5.03
2023-01-08T11:29:45.849Z,4.87
2023-01-08T11:32:29.348Z,4.57
2023-01-08T11:35:03.451Z,7.10
2023-01-08T11:37:36.975Z,5.43
2023-01-08T11:40:14.966Z,4.23
2023-01-08T11:43:09.954Z,5.07
2023-01-08T11:45:49.506Z,5.57
2023-01-08T11:48:35.476Z,5.47
2023-01-08T11:51:26.273Z,4.90
2023-01-08T11:54:06.280Z,5.03
2023-01-08T11:56:52.438Z,4.50
2023-01-08T11:59:31.070Z,4.37
2023-01-08T12:02:09.165Z,5.43
2023-01-08T12:05:03.734Z,3.90
2023-01-08T12:07:42.621Z,4.40
2023-01-08T12:10:20.474Z,4.70
2023-01-08T12:13:00.136Z,4.67
2023-01-08T12:15:46.254Z,4.50
2023-01-08T12:18:26.326Z,4.87
2023-01-08T12:21:02.509Z,5.87
2023-01-08T12:23:48.851Z,5.50
2023-01-08T12:26:28.799Z,4.30
2023-01-08T12:29:31.416Z,5.00
2023-01-08T12:32:31.910Z,4.27
2023-01-08T12:35:09.276Z,5.43
2023-01-08T12:37:45.484Z,5.00
2023-01-08T12:40:18.208Z,4.90
2023-01-08T12:43:00.074Z,4.90
2023-01-08T12:45:31.756Z,4.50
2023-01-08T12:48:04.880Z,4.67
2023-01-08T12:50:49.578Z,4.87
2023-01-08T12:53:28.092Z,4.47
2023-01-08T12:56:04.492Z,5.13
2023-01-08T12:58:44.829Z,5.23
2023-01-08T13:01:25.508Z,5.07
2023-01-08T13:03:56.325Z,4.90
2023-01-08T13:06:24.772Z,4.20
2023-01-08T13:08:55.184Z,4.13
2023-01-08T13:11:30.453Z,4.63
2023-01-08T13:14:09.324Z,4.77
2023-01-08T13:16:40.527Z,4.90
2023-01-08T13:19:23.441Z,5.20
2023-01-08T13:21:54.062Z,5.20
2023-01-08T13:24:30.956Z,5.23
2023-01-08T13:27:12.119Z,4.80
2023-01-08T13:29:43.288Z,6.30
2023-01-08T13:32:27.291Z,6.17
2023-01-08T13:35:04.599Z,4.77
2023-01-08T13:37:32.908Z,4.60
2023-01-08T13:40:01.264Z,4.23
2023-01-08T13:42:31.546Z,5.53
2023-01-08T13:45:03.203Z,5.07
2023-01-08T13:47:35.274Z,5.00
2023-01-08T13:50:08.331Z,5.03
2023-01-08T13:52:44.193Z,6.47
2023-01-08T13:55:18.066Z,4.63
2023-01-08T13:57:50.795Z,5.17
2023-01-08T14:00:25.548Z,5.03
2023-01-08T14:02:55.356Z,5.90
2023-01-08T14:05:27.141Z,4.60
2023-01-08T14:07:55.941Z,5.77
2023-01-08T14:10:25.029Z,6.23
2023-01-08T14:12:53.896Z,4.73
2023-01-08T14:15:27.055Z,8.50
2023-01-08T14:17:57.096Z,10.80
2023-01-08T14:20:33.056Z,4.97
2023-01-08T14:23:03.091Z,5.00
2023-01-08T14:25:31.861Z,4.50
2023-01-08T14:28:02.789Z,5.03
2023-01-08T14:30:33.078Z,4.40
2023-01-08T14:33:03.059Z,4.57
2023-01-08T14:35:34.852Z,4.50
2023-01-08T14:38:05.865Z,4.40
2023-01-08T14:40:38.374Z,5.97
2023-01-08T14:43:11.229Z,5.47
2023-01-08T14:45:47.911Z,5.13
2023-01-08T14:48:23.294Z,5.53
2023-01-08T14:51:07.610Z,5.33
2023-01-08T14:53:38.895Z,6.53
2023-01-08T14:56:08.644Z,4.77
2023-01-08T14:58:40.251Z,6.57
2023-01-08T15:01:16.674Z,5.90
2023-01-08T15:03:46.962Z,5.43
2023-01-08T15:06:25.724Z,5.23
2023-01-08T15:08:54.289Z,5.90
2023-01-08T15:11:24.368Z,5.20
2023-01-08T15:13:54.313Z,4.90
2023-01-08T15:16:30.083Z,5.03
2023-01-08T15:19:05.536Z,5.27
2023-01-08T15:21:35.993Z,5.50
2023-01-08T15:24:06.296Z,5.27
2023-01-08T15:26:35.080Z,4.90
2023-01-08T15:29:06.724Z,5.77
2023-01-08T15:31:49.549Z,5.33
2023-01-08T15:34:21.411Z,6.23
2023-01-08T15:36:50.795Z,4.87
2023-01-08T15:39:19.215Z,5.17
2023-01-08T15:42:05.087Z,5.50
2023-01-08T15:44:33.551Z,6.60
2023-01-08T15:47:03.376Z,5.60
2023-01-08T15:49:31.752Z,6.67
2023-01-08T15:52:01.146Z,7.20
2023-01-08T15:54:29.471Z,6.70
2023-01-08T15:56:57.810Z,7.23
2023-01-08T15:59:26.170Z,6.93
2023-01-08T16:01:54.544Z,6.93
2023-01-08T16:04:24.539Z,6.67
2023-01-08T16:06:52.863Z,18.90
2023-01-08T16:09:21.279Z,13.27
2023-01-08T16:11:49.796Z,15.73
2023-01-08T16:14:18.127Z,8.93
2023-01-08T16:16:46.504Z,7.07
2023-01-08T16:19:14.983Z,6.67
2023-01-08T16:21:47.785Z,6.00
2023-01-08T16:24:16.163Z,6.03
2023-01-08T16:26:45.468Z,5.70
2023-01-08T16:29:13.870Z,5.73
2023-01-08T16:31:46.639Z,6.37
2023-01-08T16:34:16.357Z,5.60
2023-01-08T16:36:46.105Z,5.77
2023-01-08T16:39:14.434Z,7.10
2023-01-08T16:41:42.799Z,6.53
2023-01-08T16:44:19.564Z,6.67
2023-01-08T16:46:48.297Z,6.33
2023-01-08T16:49:16.799Z,6.10
2023-01-08T16:51:46.634Z,6.33
2023-01-08T16:54:15.321Z,5.70
2023-01-08T16:56:44.383Z,6.53
2023-01-08T16:59:22.873Z,6.20
2023-01-08T17:01:53.468Z,6.63
2023-01-08T17:04:22.008Z,6.53
2023-01-08T17:06:51.771Z,6.77
2023-01-08T17:09:20.191Z,6.40
2023-01-08T17:11:48.987Z,6.60
2023-01-08T17:14:17.443Z,6.03
2023-01-08T17:16:47.723Z,7.87
2023-01-08T17:19:16.686Z,8.20
2023-01-08T17:21:46.106Z,6.50
2023-01-08T17:24:15.860Z,7.23
2023-01-08T17:26:44.244Z,7.77
2023-01-08T17:29:12.574Z,8.33
2023-01-08T17:31:41.156Z,9.23
2023-01-08T17:34:13.043Z,12.67
2023-01-08T17:36:42.537Z,11.17
2023-01-08T17:39:12.301Z,9.67
2023-01-08T17:42:01.857Z,7.77
2023-01-08T17:44:31.248Z,7.43
2023-01-08T17:46:59.544Z,9.00
2023-01-08T17:49:28.053Z,8.70
2023-01-08T17:51:57.187Z,10.07
2023-01-08T17:54:25.563Z,7.97
2023-01-08T17:56:56.429Z,7.13
2023-01-08T17:59:25.101Z,7.80
2023-01-08T18:01:54.315Z,7.50
2023-01-08T18:04:22.860Z,6.93
2023-01-08T18:06:51.151Z,6.70
2023-01-08T18:09:19.572Z,6.60
2023-01-08T18:11:47.827Z,5.87
2023-01-08T18:14:18.058Z,5.60
2023-01-08T18:16:46.576Z,5.73
2023-01-08T18:19:16.852Z,5.90
2023-01-08T18:21:45.748Z,9.50
2023-01-08T18:24:14.503Z,6.93
2023-01-08T18:26:44.089Z,9.17
2023-01-08T18:29:12.635Z,16.47
2023-01-08T18:31:45.714Z,11.00
2023-01-08T18:34:15.394Z,12.53
2023-01-08T18:36:43.813Z,13.73
2023-01-08T18:39:13.351Z,25.87
2023-01-08T18:41:58.992Z,33.37
2023-01-08T18:44:27.543Z,14.90
2023-01-08T18:46:57.306Z,13.93
2023-01-08T18:49:27.630Z,8.73
2023-01-08T18:51:55.951Z,7.33
2023-01-08T18:54:24.281Z,10.40
2023-01-08T18:56:52.694Z,10.37
2023-01-08T18:59:21.141Z,15.27
2023-01-08T19:01:49.667Z,12.47
2023-01-08T19:04:19.510Z,12.23
2023-01-08T19:06:48.299Z,11.23
2023-01-08T19:09:17.475Z,7.73
2023-01-08T19:11:46.175Z,8.20
2023-01-08T19:14:14.915Z,10.67
2023-01-08T19:16:49.538Z,10.73
2023-01-08T19:19:19.445Z,10.33
2023-01-08T19:21:47.848Z,9.17
2023-01-08T19:24:16.230Z,11.73
2023-01-08T19:26:44.627Z,10.57
2023-01-08T19:29:13.055Z,9.47
2023-01-08T19:31:41.484Z,10.23
2023-01-08T19:34:11.724Z,9.20
2023-01-08T19:36:43.728Z,7.80
2023-01-08T19:39:12.411Z,7.97
2023-01-08T19:41:58.458Z,7.33
2023-01-08T19:44:27.357Z,7.70
2023-01-08T19:46:55.769Z,5.93
2023-01-08T19:49:25.738Z,7.47
2023-01-08T19:51:55.553Z,7.00
2023-01-08T19:54:26.002Z,6.90
2023-01-08T19:56:54.620Z,5.33
2023-01-08T19:59:24.829Z,7.40
2023-01-08T20:01:53.438Z,5.67
2023-01-08T20:04:22.196Z,6.40
2023-01-08T20:06:52.427Z,11.57
2023-01-08T20:09:22.260Z,7.57
2023-01-08T20:11:50.700Z,7.93
2023-01-08T20:14:20.972Z,7.80
2023-01-08T20:16:49.650Z,10.37
2023-01-08T20:19:18.049Z,10.50
2023-01-08T20:21:46.422Z,9.63
2023-01-08T20:24:15.374Z,8.47
2023-01-08T20:26:46.862Z,6.33
2023-01-08T20:29:16.730Z,6.50
2023-01-08T20:31:45.276Z,7.50
2023-01-08T20:34:16.392Z,5.63
2023-01-08T20:36:45.675Z,5.93
2023-01-08T20:39:16.526Z,9.90
2023-01-08T20:41:55.464Z,7.93
2023-01-08T20:44:30.476Z,8.67
2023-01-08T20:46:59.061Z,8.93
2023-01-08T20:49:27.763Z,8.80
2023-01-08T20:51:59.478Z,7.63
2023-01-08T20:54:28.854Z,8.00
2023-01-08T20:56:59.859Z,8.33
2023-01-08T20:59:28.828Z,8.43
2023-01-08T21:01:57.429Z,7.50
2023-01-08T21:04:25.975Z,7.63
2023-01-08T21:06:54.521Z,8.00
2023-01-08T21:09:22.956Z,10.30
2023-01-08T21:11:51.524Z,10.40
2023-01-08T21:14:21.318Z,10.13
2023-01-08T21:16:50.763Z,8.60
2023-01-08T21:19:19.258Z,8.10
2023-01-08T21:21:47.659Z,7.67
2023-01-08T21:24:16.711Z,7.57
2023-01-08T21:26:46.208Z,7.33
2023-01-08T21:29:14.878Z,7.93
2023-01-08T21:31:45.082Z,6.63
2023-01-08T21:34:14.091Z,6.50
2023-01-08T21:36:42.452Z,6.53
2023-01-08T21:39:12.146Z,6.63
2023-01-08T21:41:57.763Z,6.50
2023-01-08T21:44:45.222Z,7.23
2023-01-08T21:47:18.099Z,7.40
2023-01-08T21:49:47.152Z,12.20
2023-01-08T21:52:33.746Z,10.53
2023-01-08T21:55:02.585Z,14.23
2023-01-08T21:57:30.933Z,17.23
2023-01-08T21:59:59.256Z,11.03
2023-01-08T22:02:29.168Z,9.03
2023-01-08T22:04:58.540Z,12.27
2023-01-08T22:07:27.314Z,10.17
2023-01-08T22:09:55.921Z,8.83
2023-01-08T22:12:25.678Z,8.73
2023-01-08T22:14:54.528Z,9.00
2023-01-08T22:17:24.110Z,9.60
2023-01-08T22:19:54.777Z,9.27
2023-01-08T22:22:23.205Z,9.10
2023-01-08T22:24:52.337Z,9.63
2023-01-08T22:27:21.223Z,8.50
2023-01-08T22:29:49.882Z,9.80
2023-01-08T22:32:18.247Z,9.70
2023-01-08T22:34:46.640Z,10.43
2023-01-08T22:37:18.501Z,8.83
2023-01-08T22:39:47.107Z,10.13
2023-01-08T22:42:15.483Z,9.17
2023-01-08T22:44:44.140Z,8.80
2023-01-08T22:47:12.493Z,10.40
2023-01-08T22:49:40.961Z,10.77
2023-01-08T22:52:09.961Z,11.70
2023-01-08T22:54:40.185Z,9.43
2023-01-08T22:57:09.688Z,8.23
2023-01-08T22:59:38.377Z,8.70
2023-01-08T23:02:06.738Z,9.37
2023-01-08T23:04:35.065Z,7.57
2023-01-08T23:07:03.435Z,8.73
2023-01-08T23:09:32.064Z,8.70
2023-01-08T23:12:02.016Z,9.27
2023-01-08T23:14:30.446Z,10.47
2023-01-08T23:16:58.866Z,10.87
2023-01-08T23:19:27.555Z,10.13
2023-01-08T23:21:55.882Z,10.43
2023-01-08T23:24:24.293Z,9.10
2023-01-08T23:26:52.648Z,8.40
2023-01-08T23:29:22.435Z,8.47
2023-01-08T23:31:51.445Z,9.87
2023-01-08T23:34:19.786Z,7.40
2023-01-08T23:36:48.132Z,8.10
2023-01-08T23:39:17.841Z,8.20
2023-01-08T23:41:46.242Z,9.90
2023-01-08T23:44:17.018Z,9.73
2023-01-08T23:46:46.853Z,9.30
2023-01-08T23:49:15.234Z,12.70
2023-01-08T23:51:43.638Z,13.20
2023-01-08T23:54:12.991Z,7.40
2023-01-08T23:56:43.873Z,7.93
2023-01-08T23:59:12.944Z,6.20
